sensor_id;sensor_type;location;lat;lon;timestamp;temperature;humidity
4739;DHT22;2383;48.632;10.156;2024-02-23T00:01:47;6.20;99.90
4739;DHT22;2383;48.632;10.156;2024-02-23T00:05:50;6.20;99.90
4739;DHT22;2383;48.632;10.156;2024-02-23T00:09:52;6.20;99.90
4739;DHT22;2383;48.632;10.156;2024-02-23T00:13:54;6.00;99.90
4739;DHT22;2383;48.632;10.156;2024-02-23T00:17:56;5.60;99.90
4739;DHT22;2383;48.632;10.156;2024-02-23T00:21:58;4.00;99.90
4739;DHT22;2383;48.632;10.156;2024-02-23T00:26:03;2.60;99.90
4739;DHT22;2383;48.632;10.156;2024-02-23T00:30:06;1.60;99.90
4739;DHT22;2383;48.632;10.156;2024-02-23T00:34:08;1.40;99.90
4739;DHT22;2383;48.632;10.156;2024-02-23T00:38:12;1.50;99.90
4739;DHT22;2383;48.632;10.156;2024-02-23T00:42:14;1.50;99.90
4739;DHT22;2383;48.632;10.156;2024-02-23T00:46:16;1.40;99.90
4739;DHT22;2383;48.632;10.156;2024-02-23T00:50:19;0.90;99.90
4739;DHT22;2383;48.632;10.156;2024-02-23T00:54:22;1.90;99.90
4739;DHT22;2383;48.632;10.156;2024-02-23T00:58:24;2.60;99.90
4739;DHT22;2383;48.632;10.156;2024-02-23T01:02:26;2.40;99.90
4739;DHT22;2383;48.632;10.156;2024-02-23T01:06:28;2.20;99.90
4739;DHT22;2383;48.632;10.156;2024-02-23T01:10:30;2.30;99.90
4739;DHT22;2383;48.632;10.156;2024-02-23T01:14:32;2.70;99.90
4739;DHT22;2383;48.632;10.156;2024-02-23T01:18:34;2.60;99.90
4739;DHT22;2383;48.632;10.156;2024-02-23T01:22:37;2.40;99.90
4739;DHT22;2383;48.632;10.156;2024-02-23T01:26:40;2.10;99.90
4739;DHT22;2383;48.632;10.156;2024-02-23T01:30:44;2.90;99.90
4739;DHT22;2383;48.632;10.156;2024-02-23T01:34:46;3.10;99.90
4739;DHT22;2383;48.632;10.156;2024-02-23T01:38:48;3.00;99.90
4739;DHT22;2383;48.632;10.156;2024-02-23T01:43:01;3.20;99.90
4739;DHT22;2383;48.632;10.156;2024-02-23T01:47:04;4.00;99.90
4739;DHT22;2383;48.632;10.156;2024-02-23T01:51:06;4.20;99.90
4739;DHT22;2383;48.632;10.156;2024-02-23T01:55:08;4.40;99.90
4739;DHT22;2383;48.632;10.156;2024-02-23T01:59:10;3.70;99.90
4739;DHT22;2383;48.632;10.156;2024-02-23T02:03:13;4.40;99.90
4739;DHT22;2383;48.632;10.156;2024-02-23T02:07:15;4.50;99.90
4739;DHT22;2383;48.632;10.156;2024-02-23T02:11:20;4.90;99.90
4739;DHT22;2383;48.632;10.156;2024-02-23T02:15:22;5.00;99.90
4739;DHT22;2383;48.632;10.156;2024-02-23T02:19:24;4.30;99.90
4739;DHT22;2383;48.632;10.156;2024-02-23T02:23:26;4.60;99.90
4739;DHT22;2383;48.632;10.156;2024-02-23T02:27:28;5.00;99.90
4739;DHT22;2383;48.632;10.156;2024-02-23T02:31:30;4.90;99.90
4739;DHT22;2383;48.632;10.156;2024-02-23T02:35:38;4.60;99.90
4739;DHT22;2383;48.632;10.156;2024-02-23T02:39:41;4.60;99.90
4739;DHT22;2383;48.632;10.156;2024-02-23T02:43:43;4.60;99.90
4739;DHT22;2383;48.632;10.156;2024-02-23T02:47:45;4.50;99.90
4739;DHT22;2383;48.632;10.156;2024-02-23T02:51:47;4.50;99.90
4739;DHT22;2383;48.632;10.156;2024-02-23T02:55:49;4.40;99.90
4739;DHT22;2383;48.632;10.156;2024-02-23T02:59:51;5.00;99.90
4739;DHT22;2383;48.632;10.156;2024-02-23T03:03:53;4.90;99.90
4739;DHT22;2383;48.632;10.156;2024-02-23T03:07:55;4.40;99.90
4739;DHT22;2383;48.632;10.156;2024-02-23T03:11:57;4.70;99.90
4739;DHT22;2383;48.632;10.156;2024-02-23T03:15:59;4.70;99.90
4739;DHT22;2383;48.632;10.156;2024-02-23T03:20:02;4.80;99.90
4739;DHT22;2383;48.632;10.156;2024-02-23T03:24:14;5.00;99.90
4739;DHT22;2383;48.632;10.156;2024-02-23T03:28:16;5.00;99.90
4739;DHT22;2383;48.632;10.156;2024-02-23T03:32:18;5.10;99.90
4739;DHT22;2383;48.632;10.156;2024-02-23T03:36:21;5.10;99.90
4739;DHT22;2383;48.632;10.156;2024-02-23T03:40:23;5.40;99.90
4739;DHT22;2383;48.632;10.156;2024-02-23T03:44:25;5.50;99.90
4739;DHT22;2383;48.632;10.156;2024-02-23T03:48:27;5.20;99.90
4739;DHT22;2383;48.632;10.156;2024-02-23T03:52:29;5.30;99.90
4739;DHT22;2383;48.632;10.156;2024-02-23T03:56:39;5.50;99.90
4739;DHT22;2383;48.632;10.156;2024-02-23T04:00:43;5.50;99.90
4739;DHT22;2383;48.632;10.156;2024-02-23T04:04:46;5.50;99.90
4739;DHT22;2383;48.632;10.156;2024-02-23T04:08:48;5.70;99.90
4739;DHT22;2383;48.632;10.156;2024-02-23T04:12:52;5.80;99.90
4739;DHT22;2383;48.632;10.156;2024-02-23T04:16:54;5.80;99.90
4739;DHT22;2383;48.632;10.156;2024-02-23T04:20:56;5.70;99.90
4739;DHT22;2383;48.632;10.156;2024-02-23T04:24:58;5.70;99.90
4739;DHT22;2383;48.632;10.156;2024-02-23T04:29:00;5.70;99.90
4739;DHT22;2383;48.632;10.156;2024-02-23T04:33:02;5.60;99.90
4739;DHT22;2383;48.632;10.156;2024-02-23T04:37:04;5.80;99.90
4739;DHT22;2383;48.632;10.156;2024-02-23T04:41:06;5.40;99.90
4739;DHT22;2383;48.632;10.156;2024-02-23T04:45:09;5.20;99.90
4739;DHT22;2383;48.632;10.156;2024-02-23T04:49:11;5.30;99.90
4739;DHT22;2383;48.632;10.156;2024-02-23T04:53:13;5.50;99.90
4739;DHT22;2383;48.632;10.156;2024-02-23T04:57:16;5.50;99.90
4739;DHT22;2383;48.632;10.156;2024-02-23T05:01:18;5.60;99.90
4739;DHT22;2383;48.632;10.156;2024-02-23T05:05:20;5.70;99.90
4739;DHT22;2383;48.632;10.156;2024-02-23T05:09:24;5.60;99.90
4739;DHT22;2383;48.632;10.156;2024-02-23T05:13:26;5.30;99.90
4739;DHT22;2383;48.632;10.156;2024-02-23T05:17:28;5.20;99.90
4739;DHT22;2383;48.632;10.156;2024-02-23T05:21:30;5.40;99.90
4739;DHT22;2383;48.632;10.156;2024-02-23T05:25:33;5.60;99.90
4739;DHT22;2383;48.632;10.156;2024-02-23T05:29:35;5.60;99.90
4739;DHT22;2383;48.632;10.156;2024-02-23T05:33:37;5.80;99.90
4739;DHT22;2383;48.632;10.156;2024-02-23T05:37:41;5.70;99.90
4739;DHT22;2383;48.632;10.156;2024-02-23T05:41:44;5.70;99.90
4739;DHT22;2383;48.632;10.156;2024-02-23T05:45:46;5.80;99.90
4739;DHT22;2383;48.632;10.156;2024-02-23T05:49:48;5.70;99.90
4739;DHT22;2383;48.632;10.156;2024-02-23T05:53:50;5.80;99.90
4739;DHT22;2383;48.632;10.156;2024-02-23T05:57:52;5.60;99.90
4739;DHT22;2383;48.632;10.156;2024-02-23T06:01:54;5.60;99.90
4739;DHT22;2383;48.632;10.156;2024-02-23T06:05:59;5.60;99.90
4739;DHT22;2383;48.632;10.156;2024-02-23T06:10:01;5.70;99.90
4739;DHT22;2383;48.632;10.156;2024-02-23T06:14:03;5.50;99.90
4739;DHT22;2383;48.632;10.156;2024-02-23T06:18:05;5.60;99.90
4739;DHT22;2383;48.632;10.156;2024-02-23T06:22:07;5.60;99.90
4739;DHT22;2383;48.632;10.156;2024-02-23T06:26:12;5.60;99.90
4739;DHT22;2383;48.632;10.156;2024-02-23T06:30:14;5.60;99.90
4739;DHT22;2383;48.632;10.156;2024-02-23T06:34:16;5.50;99.90
4739;DHT22;2383;48.632;10.156;2024-02-23T06:38:18;5.80;99.90
4739;DHT22;2383;48.632;10.156;2024-02-23T06:42:21;5.60;99.90
4739;DHT22;2383;48.632;10.156;2024-02-23T06:46:23;5.50;99.90
4739;DHT22;2383;48.632;10.156;2024-02-23T06:50:25;5.60;99.90
4739;DHT22;2383;48.632;10.156;2024-02-23T06:54:27;5.70;99.90
4739;DHT22;2383;48.632;10.156;2024-02-23T06:58:30;5.50;99.90
4739;DHT22;2383;48.632;10.156;2024-02-23T07:02:32;5.50;99.90
4739;DHT22;2383;48.632;10.156;2024-02-23T07:06:38;5.50;99.90
4739;DHT22;2383;48.632;10.156;2024-02-23T07:10:40;5.30;99.90
4739;DHT22;2383;48.632;10.156;2024-02-23T07:14:42;5.40;99.90
4739;DHT22;2383;48.632;10.156;2024-02-23T07:18:44;5.30;99.90
4739;DHT22;2383;48.632;10.156;2024-02-23T07:22:47;5.10;99.90
4739;DHT22;2383;48.632;10.156;2024-02-23T07:26:49;5.00;99.90
4739;DHT22;2383;48.632;10.156;2024-02-23T07:30:51;5.50;99.90
4739;DHT22;2383;48.632;10.156;2024-02-23T07:34:55;5.50;99.90
4739;DHT22;2383;48.632;10.156;2024-02-23T07:38:57;5.60;99.90
4739;DHT22;2383;48.632;10.156;2024-02-23T07:43:00;5.60;99.90
4739;DHT22;2383;48.632;10.156;2024-02-23T07:47:03;5.70;99.90
4739;DHT22;2383;48.632;10.156;2024-02-23T07:51:05;5.90;99.90
4739;DHT22;2383;48.632;10.156;2024-02-23T07:55:08;5.70;99.90
4739;DHT22;2383;48.632;10.156;2024-02-23T07:59:10;5.70;99.90
4739;DHT22;2383;48.632;10.156;2024-02-23T08:03:12;5.60;99.90
4739;DHT22;2383;48.632;10.156;2024-02-23T08:07:14;5.20;99.90
4739;DHT22;2383;48.632;10.156;2024-02-23T08:11:16;5.60;99.90
4739;DHT22;2383;48.632;10.156;2024-02-23T08:15:18;5.90;99.90
4739;DHT22;2383;48.632;10.156;2024-02-23T08:19:21;5.50;99.90
4739;DHT22;2383;48.632;10.156;2024-02-23T08:23:23;5.30;99.90
4739;DHT22;2383;48.632;10.156;2024-02-23T08:27:26;5.70;99.90
4739;DHT22;2383;48.632;10.156;2024-02-23T08:31:29;5.60;99.90
4739;DHT22;2383;48.632;10.156;2024-02-23T08:35:31;5.60;99.90
4739;DHT22;2383;48.632;10.156;2024-02-23T08:39:34;5.60;99.90
4739;DHT22;2383;48.632;10.156;2024-02-23T08:43:38;5.80;99.90
4739;DHT22;2383;48.632;10.156;2024-02-23T08:47:41;5.40;99.90
4739;DHT22;2383;48.632;10.156;2024-02-23T08:51:44;5.50;99.90
4739;DHT22;2383;48.632;10.156;2024-02-23T08:55:46;5.40;99.90
4739;DHT22;2383;48.632;10.156;2024-02-23T08:59:49;5.20;99.90
4739;DHT22;2383;48.632;10.156;2024-02-23T09:03:51;5.60;99.90
4739;DHT22;2383;48.632;10.156;2024-02-23T09:07:53;5.80;99.90
4739;DHT22;2383;48.632;10.156;2024-02-23T09:11:56;5.70;99.90
4739;DHT22;2383;48.632;10.156;2024-02-23T09:15:58;6.00;99.90
4739;DHT22;2383;48.632;10.156;2024-02-23T09:20:00;5.60;99.90
4739;DHT22;2383;48.632;10.156;2024-02-23T09:24:03;5.60;99.90
4739;DHT22;2383;48.632;10.156;2024-02-23T09:28:06;5.30;99.90
4739;DHT22;2383;48.632;10.156;2024-02-23T09:32:08;5.90;99.90
4739;DHT22;2383;48.632;10.156;2024-02-23T09:36:10;5.90;99.90
4739;DHT22;2383;48.632;10.156;2024-02-23T09:40:13;5.60;99.90
4739;DHT22;2383;48.632;10.156;2024-02-23T09:44:18;6.00;99.90
4739;DHT22;2383;48.632;10.156;2024-02-23T09:48:23;6.00;99.90
4739;DHT22;2383;48.632;10.156;2024-02-23T09:52:26;6.00;99.90
4739;DHT22;2383;48.632;10.156;2024-02-23T09:56:31;6.00;99.90
4739;DHT22;2383;48.632;10.156;2024-02-23T10:00:35;6.00;99.90
4739;DHT22;2383;48.632;10.156;2024-02-23T10:04:39;6.00;99.90
4739;DHT22;2383;48.632;10.156;2024-02-23T10:08:42;6.10;99.90
4739;DHT22;2383;48.632;10.156;2024-02-23T10:12:44;6.10;99.90
4739;DHT22;2383;48.632;10.156;2024-02-23T10:16:47;6.20;99.90
4739;DHT22;2383;48.632;10.156;2024-02-23T10:20:49;6.00;99.90
4739;DHT22;2383;48.632;10.156;2024-02-23T10:24:52;6.20;99.90
4739;DHT22;2383;48.632;10.156;2024-02-23T10:28:55;6.30;99.90
4739;DHT22;2383;48.632;10.156;2024-02-23T10:32:58;6.30;99.90
4739;DHT22;2383;48.632;10.156;2024-02-23T10:37:02;6.40;99.90
4739;DHT22;2383;48.632;10.156;2024-02-23T10:41:06;6.20;99.90
4739;DHT22;2383;48.632;10.156;2024-02-23T10:45:09;6.20;99.90
4739;DHT22;2383;48.632;10.156;2024-02-23T10:49:12;6.30;99.90
4739;DHT22;2383;48.632;10.156;2024-02-23T10:53:16;6.30;99.90
4739;DHT22;2383;48.632;10.156;2024-02-23T10:57:21;6.10;99.90
4739;DHT22;2383;48.632;10.156;2024-02-23T11:01:24;6.20;99.90
4739;DHT22;2383;48.632;10.156;2024-02-23T11:05:27;6.20;99.90
4739;DHT22;2383;48.632;10.156;2024-02-23T11:09:31;6.00;99.90
4739;DHT22;2383;48.632;10.156;2024-02-23T11:13:38;5.90;99.90
4739;DHT22;2383;48.632;10.156;2024-02-23T11:17:40;6.30;99.90
4739;DHT22;2383;48.632;10.156;2024-02-23T11:21:43;6.30;99.90
4739;DHT22;2383;48.632;10.156;2024-02-23T11:26:22;6.40;99.90
4739;DHT22;2383;48.632;10.156;2024-02-23T11:30:26;6.50;99.90
4739;DHT22;2383;48.632;10.156;2024-02-23T11:34:28;6.30;99.90
4739;DHT22;2383;48.632;10.156;2024-02-23T11:38:32;6.30;99.80
4739;DHT22;2383;48.632;10.156;2024-02-23T11:42:34;6.20;99.60
4739;DHT22;2383;48.632;10.156;2024-02-23T11:46:38;6.00;98.80
4739;DHT22;2383;48.632;10.156;2024-02-23T11:50:40;5.50;97.80
4739;DHT22;2383;48.632;10.156;2024-02-23T11:54:42;5.80;99.80
4739;DHT22;2383;48.632;10.156;2024-02-23T11:58:45;5.80;99.70
4739;DHT22;2383;48.632;10.156;2024-02-23T12:02:47;6.10;99.60
4739;DHT22;2383;48.632;10.156;2024-02-23T12:06:52;6.30;98.40
4739;DHT22;2383;48.632;10.156;2024-02-23T12:10:57;6.10;97.70
4739;DHT22;2383;48.632;10.156;2024-02-23T12:15:02;5.90;98.80
4739;DHT22;2383;48.632;10.156;2024-02-23T12:19:04;6.00;97.80
4739;DHT22;2383;48.632;10.156;2024-02-23T12:23:06;6.00;98.30
4739;DHT22;2383;48.632;10.156;2024-02-23T12:27:17;5.30;97.80
4739;DHT22;2383;48.632;10.156;2024-02-23T12:31:26;5.20;99.00
4739;DHT22;2383;48.632;10.156;2024-02-23T12:35:28;5.40;98.90
4739;DHT22;2383;48.632;10.156;2024-02-23T12:39:30;5.50;97.30
4739;DHT22;2383;48.632;10.156;2024-02-23T12:43:32;5.70;97.50
4739;DHT22;2383;48.632;10.156;2024-02-23T12:47:34;6.10;96.70
4739;DHT22;2383;48.632;10.156;2024-02-23T12:51:37;6.00;97.60
4739;DHT22;2383;48.632;10.156;2024-02-23T12:55:39;5.90;97.40
4739;DHT22;2383;48.632;10.156;2024-02-23T12:59:41;6.00;97.70
4739;DHT22;2383;48.632;10.156;2024-02-23T13:03:43;6.40;97.80
4739;DHT22;2383;48.632;10.156;2024-02-23T13:07:46;6.20;97.90
4739;DHT22;2383;48.632;10.156;2024-02-23T13:11:49;6.50;97.50
4739;DHT22;2383;48.632;10.156;2024-02-23T13:15:52;6.40;97.40
4739;DHT22;2383;48.632;10.156;2024-02-23T13:19:54;6.60;96.80
4739;DHT22;2383;48.632;10.156;2024-02-23T13:24:11;6.80;97.40
4739;DHT22;2383;48.632;10.156;2024-02-23T13:28:14;6.90;96.60
4739;DHT22;2383;48.632;10.156;2024-02-23T13:32:16;7.00;96.90
4739;DHT22;2383;48.632;10.156;2024-02-23T13:36:18;7.00;96.00
4739;DHT22;2383;48.632;10.156;2024-02-23T13:40:20;7.30;97.20
4739;DHT22;2383;48.632;10.156;2024-02-23T13:44:24;7.00;96.10
4739;DHT22;2383;48.632;10.156;2024-02-23T13:48:26;6.60;96.50
4739;DHT22;2383;48.632;10.156;2024-02-23T13:52:28;6.30;97.10
4739;DHT22;2383;48.632;10.156;2024-02-23T13:56:30;6.50;96.90
4739;DHT22;2383;48.632;10.156;2024-02-23T14:00:33;6.80;96.70
4739;DHT22;2383;48.632;10.156;2024-02-23T14:04:35;6.80;96.60
4739;DHT22;2383;48.632;10.156;2024-02-23T14:08:37;6.80;96.30
4739;DHT22;2383;48.632;10.156;2024-02-23T14:12:40;6.70;96.00
4739;DHT22;2383;48.632;10.156;2024-02-23T14:16:43;6.80;97.00
4739;DHT22;2383;48.632;10.156;2024-02-23T14:20:45;6.90;96.70
4739;DHT22;2383;48.632;10.156;2024-02-23T14:24:47;7.00;96.60
4739;DHT22;2383;48.632;10.156;2024-02-23T14:28:49;6.90;96.60
4739;DHT22;2383;48.632;10.156;2024-02-23T14:32:52;6.70;97.10
4739;DHT22;2383;48.632;10.156;2024-02-23T14:36:55;6.90;97.10
4739;DHT22;2383;48.632;10.156;2024-02-23T14:40:57;6.30;97.50
4739;DHT22;2383;48.632;10.156;2024-02-23T14:45:00;6.50;97.40
4739;DHT22;2383;48.632;10.156;2024-02-23T14:49:03;6.20;97.50
4739;DHT22;2383;48.632;10.156;2024-02-23T14:53:05;6.20;97.30
4739;DHT22;2383;48.632;10.156;2024-02-23T14:57:08;6.50;97.40
4739;DHT22;2383;48.632;10.156;2024-02-23T15:01:10;5.80;97.90
4739;DHT22;2383;48.632;10.156;2024-02-23T15:05:12;6.00;97.70
4739;DHT22;2383;48.632;10.156;2024-02-23T15:09:15;6.60;97.10
4739;DHT22;2383;48.632;10.156;2024-02-23T15:13:17;6.80;97.00
4739;DHT22;2383;48.632;10.156;2024-02-23T15:17:19;7.10;97.40
4739;DHT22;2383;48.632;10.156;2024-02-23T15:21:22;6.80;97.10
4739;DHT22;2383;48.632;10.156;2024-02-23T15:25:24;6.70;97.80
4739;DHT22;2383;48.632;10.156;2024-02-23T15:29:27;6.40;98.10
4739;DHT22;2383;48.632;10.156;2024-02-23T15:33:30;6.50;97.80
4739;DHT22;2383;48.632;10.156;2024-02-23T15:37:36;6.30;98.80
4739;DHT22;2383;48.632;10.156;2024-02-23T15:41:44;6.40;98.30
4739;DHT22;2383;48.632;10.156;2024-02-23T15:45:50;6.60;98.50
4739;DHT22;2383;48.632;10.156;2024-02-23T15:49:51;6.60;98.00
4739;DHT22;2383;48.632;10.156;2024-02-23T15:54:21;6.70;98.10
4739;DHT22;2383;48.632;10.156;2024-02-23T15:58:25;6.70;98.20
4739;DHT22;2383;48.632;10.156;2024-02-23T16:02:36;6.70;98.20
4739;DHT22;2383;48.632;10.156;2024-02-23T16:06:38;6.90;98.60
4739;DHT22;2383;48.632;10.156;2024-02-23T16:10:51;6.80;98.60
4739;DHT22;2383;48.632;10.156;2024-02-23T16:14:57;6.80;98.50
4739;DHT22;2383;48.632;10.156;2024-02-23T16:19:01;6.10;98.50
4739;DHT22;2383;48.632;10.156;2024-02-23T16:23:04;6.20;99.00
4739;DHT22;2383;48.632;10.156;2024-02-23T16:27:06;6.50;98.90
4739;DHT22;2383;48.632;10.156;2024-02-23T16:31:14;6.60;98.50
4739;DHT22;2383;48.632;10.156;2024-02-23T16:35:22;6.60;98.70
4739;DHT22;2383;48.632;10.156;2024-02-23T16:39:28;6.50;98.90
4739;DHT22;2383;48.632;10.156;2024-02-23T16:43:56;6.20;99.30
4739;DHT22;2383;48.632;10.156;2024-02-23T16:48:02;5.60;99.70
4739;DHT22;2383;48.632;10.156;2024-02-23T16:52:17;5.80;99.90
4739;DHT22;2383;48.632;10.156;2024-02-23T16:56:22;6.00;99.90
4739;DHT22;2383;48.632;10.156;2024-02-23T17:00:27;5.90;99.60
4739;DHT22;2383;48.632;10.156;2024-02-23T17:04:32;6.00;99.70
4739;DHT22;2383;48.632;10.156;2024-02-23T17:08:44;5.70;99.60
4739;DHT22;2383;48.632;10.156;2024-02-23T17:12:50;5.90;99.60
4739;DHT22;2383;48.632;10.156;2024-02-23T17:16:59;6.00;99.50
4739;DHT22;2383;48.632;10.156;2024-02-23T17:21:02;6.10;99.50
4739;DHT22;2383;48.632;10.156;2024-02-23T17:25:09;6.10;99.10
4739;DHT22;2383;48.632;10.156;2024-02-23T17:29:19;6.10;99.00
4739;DHT22;2383;48.632;10.156;2024-02-23T17:33:26;6.10;99.00
4739;DHT22;2383;48.632;10.156;2024-02-23T17:37:29;6.00;99.00
4739;DHT22;2383;48.632;10.156;2024-02-23T17:41:34;5.90;98.90
4739;DHT22;2383;48.632;10.156;2024-02-23T17:45:42;5.80;99.20
4739;DHT22;2383;48.632;10.156;2024-02-23T17:49:45;5.70;99.30
4739;DHT22;2383;48.632;10.156;2024-02-23T17:53:53;5.70;99.40
4739;DHT22;2383;48.632;10.156;2024-02-23T17:58:02;5.70;99.40
4739;DHT22;2383;48.632;10.156;2024-02-23T18:02:23;5.70;99.20
4739;DHT22;2383;48.632;10.156;2024-02-23T18:06:26;5.60;99.60
4739;DHT22;2383;48.632;10.156;2024-02-23T18:10:31;5.60;99.50
4739;DHT22;2383;48.632;10.156;2024-02-23T18:14:44;5.70;99.60
4739;DHT22;2383;48.632;10.156;2024-02-23T18:18:49;5.40;99.50
4739;DHT22;2383;48.632;10.156;2024-02-23T18:22:54;5.30;99.20
4739;DHT22;2383;48.632;10.156;2024-02-23T18:26:59;5.30;99.00
4739;DHT22;2383;48.632;10.156;2024-02-23T18:31:07;5.20;98.40
4739;DHT22;2383;48.632;10.156;2024-02-23T18:35:17;5.10;98.50
4739;DHT22;2383;48.632;10.156;2024-02-23T18:39:26;4.90;99.20
4739;DHT22;2383;48.632;10.156;2024-02-23T18:43:34;5.10;99.40
4739;DHT22;2383;48.632;10.156;2024-02-23T18:47:43;4.90;99.30
4739;DHT22;2383;48.632;10.156;2024-02-23T18:51:57;4.90;98.90
4739;DHT22;2383;48.632;10.156;2024-02-23T18:56:05;4.90;98.90
4739;DHT22;2383;48.632;10.156;2024-02-23T19:00:12;4.90;98.80
4739;DHT22;2383;48.632;10.156;2024-02-23T19:04:16;4.80;98.60
4739;DHT22;2383;48.632;10.156;2024-02-23T19:08:24;4.70;99.00
4739;DHT22;2383;48.632;10.156;2024-02-23T19:12:29;4.50;99.20
4739;DHT22;2383;48.632;10.156;2024-02-23T19:16:33;4.40;99.10
4739;DHT22;2383;48.632;10.156;2024-02-23T19:20:47;4.50;99.10
4739;DHT22;2383;48.632;10.156;2024-02-23T19:24:57;4.40;99.00
4739;DHT22;2383;48.632;10.156;2024-02-23T19:29:00;4.30;99.20
4739;DHT22;2383;48.632;10.156;2024-02-23T19:33:13;4.30;99.20
4739;DHT22;2383;48.632;10.156;2024-02-23T19:37:18;4.20;99.40
4739;DHT22;2383;48.632;10.156;2024-02-23T19:41:28;4.20;99.20
4739;DHT22;2383;48.632;10.156;2024-02-23T19:45:41;4.20;99.40
4739;DHT22;2383;48.632;10.156;2024-02-23T19:49:54;4.10;99.10
4739;DHT22;2383;48.632;10.156;2024-02-23T19:53:59;4.00;99.30
4739;DHT22;2383;48.632;10.156;2024-02-23T19:58:04;4.00;99.20
4739;DHT22;2383;48.632;10.156;2024-02-23T20:02:11;4.00;99.00
4739;DHT22;2383;48.632;10.156;2024-02-23T20:06:17;4.10;99.10
4739;DHT22;2383;48.632;10.156;2024-02-23T20:10:27;3.90;99.50
4739;DHT22;2383;48.632;10.156;2024-02-23T20:14:31;3.70;99.70
4739;DHT22;2383;48.632;10.156;2024-02-23T20:18:36;3.70;99.70
4739;DHT22;2383;48.632;10.156;2024-02-23T20:22:38;3.80;99.50
4739;DHT22;2383;48.632;10.156;2024-02-23T20:26:43;3.60;99.40
4739;DHT22;2383;48.632;10.156;2024-02-23T20:30:48;3.60;99.50
4739;DHT22;2383;48.632;10.156;2024-02-23T20:34:52;3.60;99.30
4739;DHT22;2383;48.632;10.156;2024-02-23T20:38:57;3.40;99.50
4739;DHT22;2383;48.632;10.156;2024-02-23T20:42:59;3.50;99.20
4739;DHT22;2383;48.632;10.156;2024-02-23T20:47:02;3.40;99.10
4739;DHT22;2383;48.632;10.156;2024-02-23T20:51:04;3.40;99.10
4739;DHT22;2383;48.632;10.156;2024-02-23T20:55:12;3.20;99.50
4739;DHT22;2383;48.632;10.156;2024-02-23T20:59:17;3.30;99.10
4739;DHT22;2383;48.632;10.156;2024-02-23T21:03:19;3.20;99.30
4739;DHT22;2383;48.632;10.156;2024-02-23T21:07:23;3.40;99.00
4739;DHT22;2383;48.632;10.156;2024-02-23T21:11:25;3.10;99.00
4739;DHT22;2383;48.632;10.156;2024-02-23T21:15:27;2.90;99.00
4739;DHT22;2383;48.632;10.156;2024-02-23T21:19:29;2.80;99.20
4739;DHT22;2383;48.632;10.156;2024-02-23T21:23:33;2.60;99.40
4739;DHT22;2383;48.632;10.156;2024-02-23T21:27:35;2.70;99.40
4739;DHT22;2383;48.632;10.156;2024-02-23T21:31:38;2.60;99.50
4739;DHT22;2383;48.632;10.156;2024-02-23T21:35:40;2.60;99.50
4739;DHT22;2383;48.632;10.156;2024-02-23T21:39:42;2.80;99.30
4739;DHT22;2383;48.632;10.156;2024-02-23T21:43:44;2.70;99.10
4739;DHT22;2383;48.632;10.156;2024-02-23T21:47:46;2.90;99.10
4739;DHT22;2383;48.632;10.156;2024-02-23T21:51:48;2.70;99.00
4739;DHT22;2383;48.632;10.156;2024-02-23T21:55:50;2.60;98.80
4739;DHT22;2383;48.632;10.156;2024-02-23T21:59:52;2.60;98.80
4739;DHT22;2383;48.632;10.156;2024-02-23T22:03:56;2.50;98.80
4739;DHT22;2383;48.632;10.156;2024-02-23T22:07:58;2.50;98.80
4739;DHT22;2383;48.632;10.156;2024-02-23T22:12:00;2.50;99.00
4739;DHT22;2383;48.632;10.156;2024-02-23T22:16:03;2.50;98.90
4739;DHT22;2383;48.632;10.156;2024-02-23T22:20:06;2.30;98.90
4739;DHT22;2383;48.632;10.156;2024-02-23T22:24:09;2.30;98.90
4739;DHT22;2383;48.632;10.156;2024-02-23T22:28:11;2.30;98.90
4739;DHT22;2383;48.632;10.156;2024-02-23T22:32:14;2.30;98.70
4739;DHT22;2383;48.632;10.156;2024-02-23T22:36:16;2.30;98.80
4739;DHT22;2383;48.632;10.156;2024-02-23T22:40:18;2.20;98.80
4739;DHT22;2383;48.632;10.156;2024-02-23T22:44:20;2.20;98.60
4739;DHT22;2383;48.632;10.156;2024-02-23T22:48:23;2.10;98.40
4739;DHT22;2383;48.632;10.156;2024-02-23T22:52:25;2.10;98.60
4739;DHT22;2383;48.632;10.156;2024-02-23T22:56:28;2.10;98.50
4739;DHT22;2383;48.632;10.156;2024-02-23T23:00:30;2.00;98.80
4739;DHT22;2383;48.632;10.156;2024-02-23T23:04:32;2.10;98.40
4739;DHT22;2383;48.632;10.156;2024-02-23T23:08:34;1.90;98.50
4739;DHT22;2383;48.632;10.156;2024-02-23T23:12:37;2.00;98.50
4739;DHT22;2383;48.632;10.156;2024-02-23T23:16:42;2.00;98.70
4739;DHT22;2383;48.632;10.156;2024-02-23T23:20:44;2.00;98.40
4739;DHT22;2383;48.632;10.156;2024-02-23T23:24:47;2.00;98.30
4739;DHT22;2383;48.632;10.156;2024-02-23T23:28:49;1.90;98.50
4739;DHT22;2383;48.632;10.156;2024-02-23T23:32:51;1.90;98.50
4739;DHT22;2383;48.632;10.156;2024-02-23T23:36:53;1.90;98.20
4739;DHT22;2383;48.632;10.156;2024-02-23T23:40:55;2.00;97.90
4739;DHT22;2383;48.632;10.156;2024-02-23T23:44:57;2.00;97.90
4739;DHT22;2383;48.632;10.156;2024-02-23T23:48:59;2.00;97.70
4739;DHT22;2383;48.632;10.156;2024-02-23T23:53:03;1.90;97.70
4739;DHT22;2383;48.632;10.156;2024-02-23T23:57:05;1.70;98.00
